createdAt,value
2023-03-11T00:00:49.810Z,99.90
2023-03-11T00:03:20.268Z,99.90
2023-03-11T00:05:50.220Z,99.90
2023-03-11T00:08:20.075Z,99.90
2023-03-11T00:10:49.908Z,99.90
2023-03-11T00:13:18.888Z,99.90
2023-03-11T00:15:49.579Z,99.90
2023-03-11T00:18:18.516Z,99.90
2023-03-11T00:20:49.409Z,99.90
2023-03-11T00:23:17.634Z,99.90
2023-03-11T00:25:47.341Z,99.90
2023-03-11T00:28:16.750Z,99.90
2023-03-11T00:30:46.986Z,99.90
2023-03-11T00:33:16.922Z,99.90
2023-03-11T00:35:45.594Z,99.90
2023-03-11T00:38:17.612Z,99.90
2023-03-11T00:40:47.341Z,99.90
2023-03-11T00:43:16.214Z,99.90
2023-03-11T00:45:44.627Z,99.90
2023-03-11T00:48:14.462Z,99.90
2023-03-11T00:50:43.125Z,99.90
2023-03-11T00:53:11.687Z,99.90
2023-03-11T00:55:42.490Z,99.90
2023-03-11T00:58:13.677Z,99.90
2023-03-11T01:00:55.192Z,99.90
2023-03-11T01:03:23.572Z,99.90
2023-03-11T01:05:51.638Z,99.90
2023-03-11T01:08:20.124Z,99.90
2023-03-11T01:10:50.097Z,99.90
2023-03-11T01:13:18.258Z,99.90
2023-03-11T01:15:46.950Z,99.90
2023-03-11T01:18:16.620Z,99.90
2023-03-11T01:20:44.959Z,99.90
2023-03-11T01:23:14.154Z,99.90
2023-03-11T01:25:42.514Z,99.90
2023-03-11T01:28:12.575Z,99.90
2023-03-11T01:30:43.331Z,99.90
2023-03-11T01:33:17.107Z,99.90
2023-03-11T01:35:46.228Z,99.90
2023-03-11T01:38:14.896Z,99.90
2023-03-11T01:40:45.442Z,99.90
2023-03-11T01:43:48.025Z,99.90
2023-03-11T01:46:21.045Z,99.90
2023-03-11T01:48:51.950Z,99.90
2023-03-11T01:51:25.414Z,99.90
2023-03-11T01:53:55.056Z,99.90
2023-03-11T01:56:24.422Z,99.90
2023-03-11T01:58:57.086Z,99.90
2023-03-11T02:01:26.124Z,99.90
2023-03-11T02:03:56.213Z,99.90
2023-03-11T02:06:25.671Z,99.90
2023-03-11T02:08:56.364Z,99.90
2023-03-11T02:11:27.901Z,99.90
2023-03-11T02:14:01.745Z,99.90
2023-03-11T02:16:30.501Z,99.90
2023-03-11T02:19:01.622Z,99.90
2023-03-11T02:21:32.642Z,99.90
2023-03-11T02:24:08.746Z,99.90
2023-03-11T02:26:42.843Z,99.90
2023-03-11T02:29:12.923Z,99.90
2023-03-11T02:31:43.601Z,99.90
2023-03-11T02:34:17.218Z,99.90
2023-03-11T02:36:45.731Z,99.90
2023-03-11T02:39:15.805Z,99.90
2023-03-11T02:41:47.097Z,99.90
2023-03-11T02:44:17.440Z,99.90
2023-03-11T02:46:46.525Z,99.90
2023-03-11T02:49:16.561Z,99.90
2023-03-11T02:51:44.695Z,99.90
2023-03-11T02:54:13.405Z,99.90
2023-03-11T02:56:42.126Z,99.90
2023-03-11T02:59:10.400Z,99.90
2023-03-11T03:01:40.319Z,99.90
2023-03-11T03:04:08.973Z,99.90
2023-03-11T03:06:37.169Z,99.90
2023-03-11T03:09:05.597Z,99.90
2023-03-11T03:11:34.189Z,99.90
2023-03-11T03:14:02.415Z,99.90
2023-03-11T03:16:30.938Z,99.90
2023-03-11T03:19:00.817Z,99.90
2023-03-11T03:21:28.960Z,99.90
2023-03-11T03:23:57.685Z,99.90
2023-03-11T03:26:25.817Z,99.90
2023-03-11T03:28:54.026Z,99.90
2023-03-11T03:31:22.484Z,99.90
2023-03-11T03:33:50.906Z,99.90
2023-03-11T03:36:20.824Z,99.90
2023-03-11T03:38:56.284Z,99.90
2023-03-11T03:41:25.975Z,99.90
2023-03-11T03:43:54.780Z,99.90
2023-03-11T03:46:23.965Z,99.90
2023-03-11T03:48:54.853Z,99.90
2023-03-11T03:51:24.613Z,99.90
2023-03-11T03:54:07.291Z,99.90
2023-03-11T03:56:37.024Z,99.90
2023-03-11T03:59:05.918Z,99.90
2023-03-11T04:01:40.538Z,99.90
2023-03-11T04:04:08.891Z,99.90
2023-03-11T04:06:38.952Z,99.90
2023-03-11T04:09:08.663Z,99.90
2023-03-11T04:11:36.965Z,99.90
2023-03-11T04:14:06.943Z,99.90
2023-03-11T04:16:40.368Z,99.90
2023-03-11T04:19:12.848Z,99.90
2023-03-11T04:21:42.864Z,99.90
2023-03-11T04:24:11.844Z,99.90
2023-03-11T04:26:40.891Z,99.90
2023-03-11T04:29:13.373Z,99.90
2023-03-11T04:31:45.324Z,99.90
2023-03-11T04:34:13.932Z,99.90
2023-03-11T04:36:43.557Z,99.90
2023-03-11T04:39:13.616Z,99.90
2023-03-11T04:41:44.765Z,99.90
2023-03-11T04:44:17.092Z,99.90
2023-03-11T04:46:46.380Z,99.90
2023-03-11T04:49:14.492Z,99.90
2023-03-11T04:51:44.654Z,99.90
2023-03-11T04:54:15.212Z,99.90
2023-03-11T04:56:43.402Z,99.90
2023-03-11T04:59:11.529Z,99.90
2023-03-11T05:01:41.534Z,99.90
2023-03-11T05:04:11.074Z,99.90
2023-03-11T05:06:39.956Z,99.90
2023-03-11T05:09:09.847Z,99.90
2023-03-11T05:11:40.914Z,99.90
2023-03-11T05:14:09.200Z,99.90
2023-03-11T05:16:37.742Z,99.90
2023-03-11T05:19:26.772Z,99.90
2023-03-11T05:21:55.993Z,99.90
2023-03-11T05:24:28.296Z,99.90
2023-03-11T05:26:57.847Z,99.90
2023-03-11T05:29:27.525Z,99.90
2023-03-11T05:31:56.007Z,99.90
2023-03-11T05:34:24.780Z,99.90
2023-03-11T05:36:53.007Z,99.90
2023-03-11T05:39:21.688Z,99.90
2023-03-11T05:41:51.472Z,99.90
2023-03-11T05:44:19.833Z,99.90
2023-03-11T05:46:48.218Z,99.90
2023-03-11T05:49:17.083Z,99.90
2023-03-11T05:51:45.863Z,99.90
2023-03-11T05:54:15.218Z,99.90
2023-03-11T05:56:48.450Z,99.90
2023-03-11T05:59:18.890Z,99.90
2023-03-11T06:01:54.817Z,99.90
2023-03-11T06:04:24.967Z,99.90
2023-03-11T06:06:53.626Z,99.90
2023-03-11T06:09:24.299Z,99.90
2023-03-11T06:11:54.248Z,99.90
2023-03-11T06:14:31.716Z,99.90
2023-03-11T06:17:01.974Z,99.90
2023-03-11T06:19:30.341Z,99.90
2023-03-11T06:21:58.768Z,99.90
2023-03-11T06:24:27.221Z,99.90
2023-03-11T06:26:55.596Z,99.90
2023-03-11T06:29:29.342Z,99.90
2023-03-11T06:31:57.703Z,99.90
2023-03-11T06:34:25.925Z,99.90
2023-03-11T06:36:56.121Z,99.90
2023-03-11T06:39:24.251Z,99.90
2023-03-11T06:41:53.757Z,99.90
2023-03-11T06:44:22.044Z,99.90
2023-03-11T06:46:51.533Z,99.90
2023-03-11T06:49:20.094Z,99.90
2023-03-11T06:51:48.626Z,99.90
2023-03-11T06:54:17.495Z,99.90
2023-03-11T06:56:46.239Z,99.90
2023-03-11T06:59:16.100Z,99.90
2023-03-11T07:01:46.029Z,99.90
2023-03-11T07:04:16.561Z,99.90
2023-03-11T07:06:45.100Z,99.90
2023-03-11T07:09:22.311Z,99.90
2023-03-11T07:11:50.769Z,99.90
2023-03-11T07:14:25.912Z,99.90
2023-03-11T07:16:57.568Z,99.90
2023-03-11T07:19:35.545Z,99.90
2023-03-11T07:22:03.941Z,99.90
2023-03-11T07:24:32.022Z,99.90
2023-03-11T07:27:00.216Z,99.90
2023-03-11T07:29:28.539Z,99.90
2023-03-11T07:31:56.679Z,99.90
2023-03-11T07:34:24.963Z,99.90
2023-03-11T07:36:54.777Z,99.90
2023-03-11T07:39:23.189Z,99.90
2023-03-11T07:41:51.479Z,99.90
2023-03-11T07:44:20.445Z,99.90
2023-03-11T07:46:48.606Z,99.90
2023-03-11T07:49:16.905Z,99.90
2023-03-11T07:51:45.149Z,99.90
2023-03-11T07:54:14.963Z,99.90
2023-03-11T07:56:43.102Z,99.90
2023-03-11T07:59:11.585Z,99.90
2023-03-11T08:01:41.200Z,99.90
2023-03-11T08:04:14.507Z,99.90
2023-03-11T08:06:44.268Z,99.90
2023-03-11T08:09:14.651Z,99.90
2023-03-11T08:11:43.203Z,99.90
2023-03-11T08:14:11.582Z,99.90
2023-03-11T08:16:41.498Z,99.90
2023-03-11T08:19:12.820Z,99.90
2023-03-11T08:21:41.777Z,99.90
2023-03-11T08:24:13.181Z,99.90
2023-03-11T08:26:43.316Z,99.90
2023-03-11T08:29:11.672Z,99.90
2023-03-11T08:31:39.769Z,99.90
2023-03-11T08:34:10.477Z,99.90
2023-03-11T08:36:38.713Z,99.90
2023-03-11T08:39:06.975Z,99.90
2023-03-11T08:41:35.251Z,99.90
2023-03-11T08:44:04.854Z,99.90
2023-03-11T08:46:35.598Z,99.90
2023-03-11T08:49:05.086Z,99.90
2023-03-11T08:51:35.121Z,99.90
2023-03-11T08:54:04.435Z,99.90
2023-03-11T08:56:32.602Z,99.90
2023-03-11T08:59:00.671Z,97.20
2023-03-11T09:01:30.622Z,97.90
2023-03-11T09:03:58.713Z,91.70
2023-03-11T09:06:27.075Z,82.30
2023-03-11T09:08:55.309Z,73.20
2023-03-11T09:11:23.865Z,70.40
2023-03-11T09:13:52.430Z,65.20
2023-03-11T09:16:22.152Z,69.80
2023-03-11T09:18:51.910Z,62.30
2023-03-11T09:21:20.511Z,61.00
2023-03-11T09:23:49.280Z,61.60
2023-03-11T09:26:17.422Z,53.40
2023-03-11T09:28:48.916Z,50.30
2023-03-11T09:31:17.938Z,47.70
2023-03-11T09:33:47.194Z,48.70
2023-03-11T09:36:18.778Z,44.90
2023-03-11T09:38:47.298Z,41.30
2023-03-11T09:41:28.521Z,41.50
2023-03-11T09:44:06.263Z,36.80
2023-03-11T09:47:10.281Z,36.10
2023-03-11T09:49:51.418Z,32.00
2023-03-11T09:52:28.579Z,33.50
2023-03-11T09:54:57.401Z,30.50
2023-03-11T09:57:29.289Z,29.00
2023-03-11T09:59:57.485Z,28.70
2023-03-11T10:02:27.776Z,28.20
2023-03-11T10:05:00.198Z,27.80
2023-03-11T10:07:36.204Z,26.80
2023-03-11T10:10:05.971Z,26.50
2023-03-11T10:12:45.683Z,25.90
2023-03-11T10:15:22.070Z,26.50
2023-03-11T10:18:25.019Z,26.00
2023-03-11T10:20:59.736Z,24.80
2023-03-11T10:23:43.253Z,25.00
2023-03-11T10:26:15.054Z,25.70
2023-03-11T10:28:47.920Z,23.80
2023-03-11T10:31:23.359Z,24.20
2023-03-11T10:33:56.643Z,24.10
2023-03-11T10:36:27.237Z,24.40
2023-03-11T10:38:57.403Z,24.40
2023-03-11T10:41:31.052Z,23.90
2023-03-11T10:44:05.023Z,23.40
2023-03-11T10:46:33.944Z,23.70
2023-03-11T10:49:01.973Z,23.50
2023-03-11T10:51:35.521Z,23.60
2023-03-11T10:54:05.484Z,23.10
2023-03-11T10:56:36.624Z,23.50
2023-03-11T10:59:07.939Z,23.00
2023-03-11T11:01:36.311Z,22.80
2023-03-11T11:04:04.884Z,22.40
2023-03-11T11:06:34.843Z,22.70
2023-03-11T11:09:17.980Z,23.10
2023-03-11T11:12:03.269Z,22.90
2023-03-11T11:14:45.783Z,22.90
2023-03-11T11:17:23.825Z,22.50
2023-03-11T11:19:56.971Z,22.30
2023-03-11T11:22:26.380Z,22.70
2023-03-11T11:24:57.307Z,22.20
2023-03-11T11:27:26.917Z,22.70
2023-03-11T11:30:15.827Z,22.40
2023-03-11T11:32:44.027Z,22.60
2023-03-11T11:35:14.557Z,22.40
2023-03-11T11:37:46.951Z,22.30
2023-03-11T11:40:31.543Z,22.10
2023-03-11T11:43:05.062Z,21.90
2023-03-11T11:45:38.883Z,22.00
2023-03-11T11:48:15.688Z,21.60
2023-03-11T11:50:47.311Z,21.90
2023-03-11T11:53:25.838Z,21.90
2023-03-11T11:55:55.715Z,21.50
2023-03-11T11:58:23.982Z,21.60
2023-03-11T12:01:08.311Z,21.80
2023-03-11T12:04:08.699Z,21.60
2023-03-11T12:06:43.451Z,21.00
2023-03-11T12:09:24.161Z,20.90
2023-03-11T12:12:02.334Z,20.80
2023-03-11T12:14:36.833Z,21.10
2023-03-11T12:17:06.137Z,21.70
2023-03-11T12:19:44.173Z,21.10
2023-03-11T12:22:29.794Z,20.80
2023-03-11T12:25:22.063Z,21.20
2023-03-11T12:27:56.104Z,21.20
2023-03-11T12:30:28.333Z,21.10
2023-03-11T12:33:00.314Z,20.90
2023-03-11T12:35:30.493Z,20.90
2023-03-11T12:38:08.396Z,21.00
2023-03-11T12:41:03.539Z,21.10
2023-03-11T12:44:02.595Z,21.20
2023-03-11T12:47:02.575Z,21.30
2023-03-11T12:49:32.416Z,21.30
2023-03-11T12:52:18.132Z,21.90
2023-03-11T12:54:47.613Z,21.20
2023-03-11T12:57:32.911Z,21.20
2023-03-11T13:00:23.906Z,21.10
2023-03-11T13:03:15.806Z,21.40
2023-03-11T13:09:15.640Z,22.30
2023-03-11T13:11:46.375Z,23.40
2023-03-11T13:14:35.364Z,23.90
2023-03-11T13:17:27.590Z,23.90
2023-03-11T13:19:57.096Z,24.00
2023-03-11T13:23:08.283Z,23.60
2023-03-11T13:25:41.942Z,23.50
2023-03-11T13:28:47.291Z,23.80
2023-03-11T13:31:30.671Z,23.60
2023-03-11T13:34:12.387Z,24.30
2023-03-11T13:36:50.605Z,25.30
2023-03-11T13:39:34.184Z,26.00
2023-03-11T13:42:04.659Z,27.20
2023-03-11T13:44:36.514Z,27.70
2023-03-11T13:47:10.321Z,28.30
2023-03-11T13:49:45.632Z,28.80
2023-03-11T13:52:17.756Z,29.40
2023-03-11T13:54:49.222Z,30.60
2023-03-11T13:57:26.745Z,31.40
2023-03-11T13:59:56.267Z,31.80
2023-03-11T14:02:26.691Z,32.80
2023-03-11T14:04:59.994Z,33.70
2023-03-11T14:07:31.743Z,34.40
2023-03-11T14:10:20.395Z,35.90
2023-03-11T14:12:49.158Z,36.60
2023-03-11T14:15:21.573Z,38.10
2023-03-11T14:17:51.291Z,38.40
2023-03-11T14:20:25.220Z,39.50
2023-03-11T14:22:55.122Z,38.70
2023-03-11T14:25:26.437Z,40.00
2023-03-11T14:27:57.286Z,41.60
2023-03-11T14:30:28.109Z,41.90
2023-03-11T14:33:02.386Z,42.90
2023-03-11T14:35:33.801Z,43.50
2023-03-11T14:38:02.403Z,44.50
2023-03-11T14:40:32.849Z,45.50
2023-03-11T14:43:04.922Z,46.10
2023-03-11T14:45:36.494Z,47.00
2023-03-11T14:48:10.397Z,48.20
2023-03-11T14:50:39.887Z,48.00
2023-03-11T14:53:14.901Z,48.90
2023-03-11T14:55:50.800Z,50.20
2023-03-11T14:58:29.156Z,50.90
2023-03-11T15:01:01.504Z,51.00
2023-03-11T15:03:32.289Z,51.40
2023-03-11T15:06:06.191Z,51.80
2023-03-11T15:08:38.656Z,52.50
2023-03-11T15:11:18.820Z,51.80
2023-03-11T15:13:50.890Z,53.00
2023-03-11T15:16:33.741Z,53.10
2023-03-11T15:19:03.258Z,53.30
2023-03-11T15:21:32.653Z,53.40
2023-03-11T15:24:05.301Z,53.30
2023-03-11T15:26:35.471Z,54.10
2023-03-11T15:29:07.067Z,55.20
2023-03-11T15:31:37.443Z,55.50
2023-03-11T15:34:25.081Z,55.80
2023-03-11T15:37:04.726Z,56.00
2023-03-11T15:39:45.303Z,56.10
2023-03-11T15:42:21.713Z,56.40
2023-03-11T15:45:02.296Z,57.20
2023-03-11T15:47:30.891Z,57.80
2023-03-11T15:49:58.993Z,58.60
2023-03-11T15:52:28.637Z,58.20
2023-03-11T15:54:56.850Z,58.10
2023-03-11T15:57:28.287Z,58.80
2023-03-11T15:59:58.212Z,58.50
2023-03-11T16:02:28.359Z,59.70
2023-03-11T16:04:57.520Z,59.40
2023-03-11T16:07:39.221Z,59.10
2023-03-11T16:10:11.442Z,59.20
2023-03-11T16:12:40.004Z,59.20
2023-03-11T16:15:15.567Z,59.50
2023-03-11T16:17:49.728Z,59.80
2023-03-11T16:20:18.771Z,61.00
2023-03-11T16:22:47.454Z,61.00
2023-03-11T16:25:22.845Z,61.90
2023-03-11T16:27:52.492Z,61.80
2023-03-11T16:30:21.323Z,61.40
2023-03-11T16:32:49.569Z,62.10
2023-03-11T16:35:19.255Z,61.90
2023-03-11T16:37:47.602Z,62.60
2023-03-11T16:40:19.267Z,62.50
2023-03-11T16:42:48.121Z,62.40
2023-03-11T16:45:17.715Z,63.40
2023-03-11T16:47:46.664Z,63.40
2023-03-11T16:50:15.022Z,63.90
2023-03-11T16:52:43.041Z,63.40
2023-03-11T16:55:11.514Z,63.90
2023-03-11T16:57:41.348Z,63.80
2023-03-11T17:00:11.004Z,63.50
2023-03-11T17:02:39.586Z,63.80
2023-03-11T17:05:09.277Z,64.60
2023-03-11T17:07:39.695Z,64.60
2023-03-11T17:10:09.670Z,64.50
2023-03-11T17:12:38.135Z,64.10
2023-03-11T17:15:08.845Z,64.20
2023-03-11T17:17:37.290Z,64.40
2023-03-11T17:20:07.017Z,65.00
2023-03-11T17:22:35.147Z,65.70
2023-03-11T17:25:03.171Z,66.70
2023-03-11T17:27:32.706Z,67.90
2023-03-11T17:30:01.018Z,68.60
2023-03-11T17:32:30.595Z,68.80
2023-03-11T17:34:59.086Z,68.80
2023-03-11T17:37:27.176Z,69.40
2023-03-11T17:39:55.260Z,69.60
2023-03-11T17:42:23.704Z,69.80
2023-03-11T17:44:52.365Z,70.20
2023-03-11T17:47:21.272Z,70.40
2023-03-11T17:49:51.399Z,70.20
2023-03-11T17:52:19.578Z,70.90
2023-03-11T17:54:47.698Z,72.70
2023-03-11T17:57:16.068Z,75.30
2023-03-11T17:59:44.121Z,78.10
2023-03-11T18:02:14.906Z,80.60
2023-03-11T18:04:45.997Z,83.30
2023-03-11T18:07:15.471Z,85.30
2023-03-11T18:09:46.489Z,87.70
2023-03-11T18:12:14.924Z,90.30
2023-03-11T18:14:42.971Z,92.00
2023-03-11T18:17:11.294Z,93.80
2023-03-11T18:19:39.569Z,94.90
2023-03-11T18:22:07.610Z,96.00
2023-03-11T18:24:37.305Z,97.20
2023-03-11T18:27:06.002Z,98.20
2023-03-11T18:29:34.120Z,99.00
2023-03-11T18:32:02.466Z,99.80
2023-03-11T18:34:31.608Z,99.90
2023-03-11T18:37:02.683Z,99.90
2023-03-11T18:39:30.773Z,99.90
2023-03-11T18:42:00.724Z,99.90
2023-03-11T18:44:28.837Z,99.90
2023-03-11T18:46:56.919Z,99.90
2023-03-11T18:49:25.033Z,99.90
2023-03-11T18:51:53.061Z,99.90
2023-03-11T18:54:21.229Z,99.90
2023-03-11T18:56:49.906Z,99.90
2023-03-11T18:59:19.253Z,99.90
2023-03-11T19:01:47.298Z,99.90
2023-03-11T19:04:15.664Z,99.90
2023-03-11T19:06:43.711Z,99.90
2023-03-11T19:09:11.886Z,99.90
2023-03-11T19:11:40.073Z,99.90
2023-03-11T19:14:08.167Z,99.90
2023-03-11T19:16:37.763Z,99.90
2023-03-11T19:19:05.895Z,99.90
2023-03-11T19:21:33.970Z,99.90
2023-03-11T19:24:02.433Z,99.90
2023-03-11T19:26:44.276Z,99.90
2023-03-11T19:29:14.067Z,99.90
2023-03-11T19:31:45.350Z,99.90
2023-03-11T19:34:13.509Z,99.90
2023-03-11T19:36:41.722Z,99.90
2023-03-11T19:39:10.262Z,99.90
2023-03-11T19:41:38.335Z,99.90
2023-03-11T19:44:06.481Z,99.90
2023-03-11T19:46:36.373Z,99.90
2023-03-11T19:49:06.440Z,99.90
2023-03-11T19:51:48.521Z,99.90
2023-03-11T19:54:17.592Z,99.90
2023-03-11T19:56:45.877Z,99.90
2023-03-11T19:59:14.004Z,99.90
2023-03-11T20:01:43.301Z,99.90
2023-03-11T20:04:14.973Z,99.90
2023-03-11T20:06:46.309Z,99.90
2023-03-11T20:09:16.090Z,99.90
2023-03-11T20:11:45.580Z,99.90
2023-03-11T20:14:14.191Z,99.90
2023-03-11T20:16:42.587Z,99.90
2023-03-11T20:19:12.042Z,99.90
2023-03-11T20:21:41.057Z,99.90
2023-03-11T20:24:10.175Z,99.90
2023-03-11T20:26:39.272Z,99.90
2023-03-11T20:29:08.028Z,99.90
2023-03-11T20:31:37.331Z,99.90
2023-03-11T20:34:05.941Z,99.90
2023-03-11T20:36:35.893Z,99.90
2023-03-11T20:39:07.894Z,99.90
2023-03-11T20:41:40.260Z,99.90
2023-03-11T20:44:10.018Z,99.90
2023-03-11T20:46:38.078Z,99.90
2023-03-11T20:49:06.399Z,99.90
2023-03-11T20:51:35.913Z,99.90
2023-03-11T20:54:04.227Z,99.90
2023-03-11T20:56:32.396Z,99.90
2023-03-11T20:59:01.003Z,99.90
2023-03-11T21:01:31.899Z,99.90
2023-03-11T21:04:01.772Z,99.90
2023-03-11T21:06:32.693Z,99.90
2023-03-11T21:09:05.633Z,99.90
2023-03-11T21:11:34.266Z,99.90
2023-03-11T21:14:02.424Z,99.90
2023-03-11T21:16:31.064Z,99.90
2023-03-11T21:19:01.279Z,99.90
2023-03-11T21:21:29.723Z,99.90
2023-03-11T21:23:58.093Z,99.90
2023-03-11T21:26:27.784Z,99.90
2023-03-11T21:28:56.079Z,99.90
2023-03-11T21:31:29.271Z,99.90
2023-03-11T21:33:59.593Z,99.90
2023-03-11T21:36:28.494Z,99.90
2023-03-11T21:38:56.905Z,99.90
2023-03-11T21:41:27.896Z,99.90
2023-03-11T21:43:58.228Z,99.90
2023-03-11T21:46:29.219Z,99.90
2023-03-11T21:48:58.477Z,99.90
2023-03-11T21:51:27.499Z,99.90
2023-03-11T21:53:56.364Z,99.90
2023-03-11T21:56:24.799Z,99.90
2023-03-11T21:58:54.422Z,99.90
2023-03-11T22:01:23.098Z,99.90
2023-03-11T22:03:51.845Z,99.90
2023-03-11T22:06:20.439Z,99.90
2023-03-11T22:08:48.853Z,99.90
2023-03-11T22:11:19.318Z,99.90
2023-03-11T22:13:49.333Z,99.90
2023-03-11T22:16:22.675Z,99.90
2023-03-11T22:18:51.792Z,99.90
2023-03-11T22:21:21.515Z,99.90
2023-03-11T22:23:50.372Z,99.90
2023-03-11T22:26:18.593Z,99.90
2023-03-11T22:28:46.685Z,99.90
2023-03-11T22:31:17.296Z,99.90
2023-03-11T22:33:47.163Z,99.90
2023-03-11T22:36:15.330Z,99.90
2023-03-11T22:38:44.493Z,99.90
2023-03-11T22:41:13.783Z,99.90
2023-03-11T22:43:41.918Z,99.90
2023-03-11T22:46:10.265Z,99.90
2023-03-11T22:48:38.409Z,99.90
2023-03-11T22:51:07.977Z,99.90
2023-03-11T22:53:36.285Z,99.90
2023-03-11T22:56:09.449Z,99.90
2023-03-11T22:58:37.819Z,99.90
2023-03-11T23:01:08.079Z,99.90
2023-03-11T23:03:37.205Z,99.90
2023-03-11T23:06:09.726Z,99.90
2023-03-11T23:08:38.266Z,99.90
2023-03-11T23:11:08.609Z,99.90
2023-03-11T23:13:37.326Z,99.90
2023-03-11T23:16:07.633Z,99.90
2023-03-11T23:18:36.241Z,99.90
2023-03-11T23:21:04.600Z,99.90
2023-03-11T23:23:34.363Z,99.90
2023-03-11T23:26:07.684Z,99.90
2023-03-11T23:28:35.813Z,99.90
2023-03-11T23:31:04.890Z,99.90
2023-03-11T23:33:33.135Z,99.90
2023-03-11T23:36:01.864Z,99.90
2023-03-11T23:38:30.352Z,99.90
2023-03-11T23:40:59.951Z,99.90
2023-03-11T23:43:28.232Z,99.90
2023-03-11T23:45:56.318Z,99.90
2023-03-11T23:48:24.587Z,99.90
2023-03-11T23:50:52.920Z,99.90
2023-03-11T23:53:23.218Z,99.90
2023-03-11T23:55:51.754Z,99.90
2023-03-11T23:58:22.094Z,99.90
